createdAt,value
2019-03-27T00:01:30.039Z,99770.65
2019-03-27T00:03:59.116Z,99763.27
2019-03-27T00:06:28.131Z,99768.39
2019-03-27T00:08:56.852Z,99767.44
2019-03-27T00:11:25.817Z,99765.98
2019-03-27T00:13:54.668Z,99765.08
2019-03-27T00:16:23.480Z,99764.64
2019-03-27T00:18:52.315Z,99765.52
2019-03-27T00:21:21.852Z,99769.12
2019-03-27T00:23:50.914Z,99765.05
2019-03-27T00:26:20.043Z,99767.35
2019-03-27T00:28:49.200Z,99767.11
2019-03-27T00:31:18.027Z,99762.50
2019-03-27T00:33:46.799Z,99761.41
2019-03-27T00:36:15.716Z,99763.17
2019-03-27T00:38:44.525Z,99766.81
2019-03-27T00:41:13.691Z,99754.50
2019-03-27T00:43:42.904Z,99758.11
2019-03-27T00:46:12.147Z,99755.09
2019-03-27T00:48:41.299Z,99758.85
2019-03-27T00:51:10.237Z,99756.97
2019-03-27T00:53:39.055Z,99759.66
2019-03-27T00:56:08.152Z,99765.16
2019-03-27T00:58:36.970Z,99757.01
2019-03-27T01:01:10.847Z,99757.75
2019-03-27T01:03:39.684Z,99759.03
2019-03-27T01:06:08.422Z,99758.45
2019-03-27T01:08:37.429Z,99747.78
2019-03-27T01:11:06.902Z,99755.36
2019-03-27T01:13:35.748Z,99755.73
2019-03-27T01:16:05.629Z,99757.01
2019-03-27T01:18:34.810Z,99760.31
2019-03-27T01:21:03.839Z,99756.12
2019-03-27T01:23:32.899Z,99746.73
2019-03-27T01:26:01.746Z,99752.00
2019-03-27T01:28:31.029Z,99750.47
2019-03-27T01:30:59.879Z,99744.31
2019-03-27T01:33:28.853Z,99749.50
2019-03-27T01:35:57.770Z,99752.73
2019-03-27T01:38:28.920Z,99746.51
2019-03-27T01:40:57.836Z,99747.63
2019-03-27T01:43:27.011Z,99744.33
2019-03-27T01:45:56.206Z,99744.93
2019-03-27T01:48:25.370Z,99739.95
2019-03-27T01:50:54.261Z,99734.82
2019-03-27T01:53:23.516Z,99737.36
2019-03-27T01:55:52.395Z,99735.12
2019-03-27T01:58:21.809Z,99731.92
2019-03-27T02:00:50.596Z,99730.42
2019-03-27T02:03:19.741Z,99730.62
2019-03-27T02:05:48.545Z,99737.09
2019-03-27T02:08:17.347Z,99734.09
2019-03-27T02:10:46.433Z,99732.17
2019-03-27T02:13:16.568Z,99739.91
2019-03-27T02:15:45.374Z,99737.48
2019-03-27T02:18:14.266Z,99737.02
2019-03-27T02:20:43.444Z,99738.20
2019-03-27T02:23:12.650Z,99743.45
2019-03-27T02:25:42.271Z,99741.23
2019-03-27T02:28:11.353Z,99742.91
2019-03-27T02:30:40.448Z,99735.13
2019-03-27T02:33:09.207Z,99734.90
2019-03-27T02:35:38.038Z,99738.13
2019-03-27T02:38:07.164Z,99741.44
2019-03-27T02:40:36.106Z,99733.42
2019-03-27T02:43:05.073Z,99733.02
2019-03-27T02:45:33.846Z,99732.67
2019-03-27T02:48:02.605Z,99736.45
2019-03-27T02:50:31.531Z,99739.75
2019-03-27T02:53:00.418Z,99733.96
2019-03-27T02:55:29.214Z,99733.66
2019-03-27T02:57:58.402Z,99746.85
2019-03-27T03:00:27.706Z,99743.02
2019-03-27T03:02:57.679Z,99740.25
2019-03-27T03:05:26.681Z,99744.05
2019-03-27T03:07:55.640Z,99751.06
2019-03-27T03:10:24.498Z,99748.44
2019-03-27T03:12:53.624Z,99749.70
2019-03-27T03:15:23.505Z,99743.59
2019-03-27T03:17:52.301Z,99746.52
2019-03-27T03:20:21.151Z,99743.55
2019-03-27T03:22:49.948Z,99741.13
2019-03-27T03:25:18.691Z,99736.95
2019-03-27T03:27:47.929Z,99737.49
2019-03-27T03:30:16.763Z,99730.12
2019-03-27T03:32:45.868Z,99739.08
2019-03-27T03:35:14.973Z,99734.27
2019-03-27T03:37:43.829Z,99738.44
2019-03-27T03:40:12.996Z,99738.27
2019-03-27T03:42:41.797Z,99734.40
2019-03-27T03:45:10.813Z,99738.58
2019-03-27T03:47:39.611Z,99741.66
2019-03-27T03:50:23.421Z,99744.93
2019-03-27T03:52:52.509Z,99745.06
2019-03-27T03:55:21.770Z,99744.39
2019-03-27T03:57:50.638Z,99741.73
2019-03-27T04:00:20.218Z,99745.38
2019-03-27T04:02:49.145Z,99748.60
2019-03-27T04:05:21.472Z,99748.60
2019-03-27T04:07:50.335Z,99753.58
2019-03-27T04:10:19.124Z,99744.39
2019-03-27T04:12:47.910Z,99738.73
2019-03-27T04:15:16.881Z,99746.85
2019-03-27T04:17:46.307Z,99747.92
2019-03-27T04:20:15.155Z,99748.77
2019-03-27T04:22:44.294Z,99753.34
2019-03-27T04:25:13.959Z,99759.47
2019-03-27T04:27:42.891Z,99760.41
2019-03-27T04:30:11.687Z,99757.19
2019-03-27T04:32:41.084Z,99750.79
2019-03-27T04:35:12.086Z,99751.03
2019-03-27T04:37:40.900Z,99752.70
2019-03-27T04:40:10.016Z,99757.29
2019-03-27T04:42:38.870Z,99754.22
2019-03-27T04:45:08.195Z,99751.80
2019-03-27T04:47:37.374Z,99753.28
2019-03-27T04:50:07.413Z,99746.65
2019-03-27T04:52:36.198Z,99751.34
2019-03-27T04:55:05.718Z,99747.48
2019-03-27T04:57:34.523Z,99747.52
2019-03-27T05:00:06.253Z,99750.67
2019-03-27T05:02:35.452Z,99749.83
2019-03-27T05:05:04.918Z,99749.41
2019-03-27T05:07:33.984Z,99751.13
2019-03-27T05:10:02.838Z,99752.83
2019-03-27T05:12:31.597Z,99759.84
2019-03-27T05:15:00.509Z,99768.70
2019-03-27T05:17:29.439Z,99768.42
2019-03-27T05:19:59.736Z,99764.45
2019-03-27T05:22:28.570Z,99775.36
2019-03-27T05:24:57.940Z,99772.66
2019-03-27T05:27:27.978Z,99778.62
2019-03-27T05:29:57.485Z,99780.23
2019-03-27T05:32:26.687Z,99783.13
2019-03-27T05:34:55.468Z,99782.06
2019-03-27T05:37:24.324Z,99786.97
2019-03-27T05:39:53.429Z,99789.72
2019-03-27T05:42:22.296Z,99789.09
2019-03-27T05:44:51.667Z,99794.48
2019-03-27T05:47:20.765Z,99802.42
2019-03-27T05:49:50.010Z,99801.36
2019-03-27T05:52:18.873Z,99805.06
2019-03-27T05:54:47.816Z,99803.61
2019-03-27T05:57:16.751Z,99809.84
2019-03-27T05:59:45.717Z,99811.02
2019-03-27T06:02:14.477Z,99814.02
2019-03-27T06:04:43.566Z,99811.49
2019-03-27T06:07:12.431Z,99810.69
2019-03-27T06:09:41.736Z,99812.77
2019-03-27T06:12:10.835Z,99809.30
2019-03-27T06:14:39.740Z,99813.38
2019-03-27T06:17:08.537Z,99813.14
2019-03-27T06:19:37.423Z,99814.65
2019-03-27T06:22:06.278Z,99818.52
2019-03-27T06:24:35.088Z,99819.84
2019-03-27T06:27:03.880Z,99825.39
2019-03-27T06:29:32.707Z,99823.48
2019-03-27T06:32:01.569Z,99818.33
2019-03-27T06:34:30.699Z,99818.76
2019-03-27T06:36:59.761Z,99818.53
2019-03-27T06:39:28.585Z,99814.53
2019-03-27T06:41:57.713Z,99814.30
2019-03-27T06:44:29.340Z,99821.23
2019-03-27T06:46:58.699Z,99817.77
2019-03-27T06:49:27.562Z,99818.28
2019-03-27T06:51:56.350Z,99816.96
2019-03-27T06:54:25.233Z,99822.33
2019-03-27T06:56:54.125Z,99821.11
2019-03-27T06:59:23.035Z,99825.09
2019-03-27T07:01:51.952Z,99826.47
2019-03-27T07:04:20.766Z,99824.91
2019-03-27T07:06:49.620Z,99831.26
2019-03-27T07:09:18.925Z,99833.03
2019-03-27T07:11:48.051Z,99836.85
2019-03-27T07:14:16.836Z,99840.63
2019-03-27T07:16:45.950Z,99841.92
2019-03-27T07:19:14.735Z,99845.03
2019-03-27T07:21:43.530Z,99854.59
2019-03-27T07:24:13.707Z,99854.70
2019-03-27T07:26:42.496Z,99856.00
2019-03-27T07:29:11.735Z,99847.27
2019-03-27T07:31:40.782Z,99855.52
2019-03-27T07:34:09.641Z,99856.44
2019-03-27T07:36:38.843Z,99856.17
2019-03-27T07:39:11.161Z,99856.91
2019-03-27T07:41:38.605Z,99852.25
2019-03-27T07:44:07.702Z,99855.29
2019-03-27T07:46:36.617Z,99857.70
2019-03-27T07:49:06.549Z,99850.31
2019-03-27T07:51:35.384Z,99850.72
2019-03-27T07:54:04.187Z,99855.63
2019-03-27T07:56:33.044Z,99864.34
2019-03-27T07:59:02.180Z,99864.08
2019-03-27T08:01:31.488Z,99865.10
2019-03-27T08:04:00.437Z,99864.53
2019-03-27T08:06:29.318Z,99865.71
2019-03-27T08:08:58.195Z,99864.28
2019-03-27T08:11:27.085Z,99875.47
2019-03-27T08:13:56.168Z,99876.57
2019-03-27T08:16:26.146Z,99874.68
2019-03-27T08:19:06.909Z,99876.39
2019-03-27T08:21:25.780Z,99872.81
2019-03-27T08:23:54.640Z,99874.46
2019-03-27T08:26:23.510Z,99877.89
2019-03-27T08:28:52.432Z,99877.50
2019-03-27T08:31:21.522Z,99879.49
2019-03-27T08:33:50.372Z,99887.95
2019-03-27T08:36:19.185Z,99880.50
2019-03-27T08:38:48.140Z,99876.98
2019-03-27T08:41:16.971Z,99873.75
2019-03-27T08:43:45.950Z,99873.83
2019-03-27T08:46:14.710Z,99872.94
2019-03-27T08:48:43.774Z,99873.33
2019-03-27T08:51:13.173Z,99876.95
2019-03-27T08:53:41.965Z,99879.91
2019-03-27T08:56:10.816Z,99875.63
2019-03-27T08:58:39.608Z,99878.96
2019-03-27T09:01:09.537Z,99879.98
2019-03-27T09:03:38.375Z,99887.17
2019-03-27T09:06:07.614Z,99883.73
2019-03-27T09:08:36.698Z,99886.96
2019-03-27T09:11:05.494Z,99898.41
2019-03-27T09:13:34.341Z,99887.11
2019-03-27T09:16:03.216Z,99890.34
2019-03-27T09:18:32.097Z,99884.00
2019-03-27T09:21:00.904Z,99889.84
2019-03-27T09:23:29.673Z,99896.41
2019-03-27T09:25:58.761Z,99894.05
2019-03-27T09:28:27.955Z,99888.88
2019-03-27T09:30:56.825Z,99885.48
2019-03-27T09:33:25.820Z,99888.38
2019-03-27T09:35:54.722Z,99889.92
2019-03-27T09:38:23.871Z,99885.73
2019-03-27T09:40:52.746Z,99886.17
2019-03-27T09:43:21.537Z,99899.31
2019-03-27T09:45:50.348Z,99898.38
2019-03-27T09:48:19.415Z,99890.11
2019-03-27T09:50:48.223Z,99889.07
2019-03-27T09:53:17.170Z,99890.27
2019-03-27T09:55:45.961Z,99882.70
2019-03-27T09:58:14.850Z,99886.50
2019-03-27T10:01:10.393Z,99883.72
2019-03-27T10:03:39.250Z,99879.03
2019-03-27T10:06:08.449Z,99876.77
2019-03-27T10:08:37.482Z,99872.08
2019-03-27T10:11:06.681Z,99871.33
2019-03-27T10:13:35.602Z,99867.56
2019-03-27T10:16:04.754Z,99867.12
2019-03-27T10:18:33.562Z,99875.41
2019-03-27T10:21:02.357Z,99869.27
2019-03-27T10:23:31.552Z,99872.33
2019-03-27T10:26:01.004Z,99867.64
2019-03-27T10:28:29.921Z,99863.56
2019-03-27T10:30:58.755Z,99867.53
2019-03-27T10:33:27.841Z,99871.39
2019-03-27T10:35:56.604Z,99872.89
2019-03-27T10:38:25.740Z,99868.61
2019-03-27T10:40:55.560Z,99871.98
2019-03-27T10:43:24.445Z,99865.52
2019-03-27T10:45:53.290Z,99865.61
2019-03-27T10:48:22.124Z,99861.23
2019-03-27T10:50:50.962Z,99863.45
2019-03-27T10:53:20.014Z,99867.28
2019-03-27T10:55:49.256Z,99871.95
2019-03-27T10:58:18.456Z,99865.79
2019-03-27T11:00:47.561Z,99869.59
2019-03-27T11:03:16.093Z,99861.09
2019-03-27T11:05:44.928Z,99863.61
2019-03-27T11:08:14.301Z,99862.57
2019-03-27T11:10:49.053Z,99863.21
2019-03-27T11:13:18.095Z,99856.50
2019-03-27T11:15:47.207Z,99863.20
2019-03-27T11:18:16.043Z,99867.17
2019-03-27T11:20:46.755Z,99867.55
2019-03-27T11:23:15.678Z,99866.75
2019-03-27T11:25:44.902Z,99864.66
2019-03-27T11:28:15.132Z,99864.23
2019-03-27T11:30:43.901Z,99857.78
2019-03-27T11:33:12.950Z,99857.75
2019-03-27T11:35:41.910Z,99857.72
2019-03-27T11:38:10.822Z,99855.48
2019-03-27T11:40:39.899Z,99850.67
2019-03-27T11:43:08.880Z,99853.14
2019-03-27T11:45:37.806Z,99856.57
2019-03-27T11:48:08.858Z,99849.06
2019-03-27T11:50:44.619Z,99852.36
2019-03-27T11:53:08.926Z,99851.78
2019-03-27T11:55:37.724Z,99857.36
2019-03-27T11:58:06.768Z,99851.52
2019-03-27T12:00:35.654Z,99853.36
2019-03-27T12:03:04.734Z,99845.19
2019-03-27T12:05:34.080Z,99846.95
2019-03-27T12:08:03.083Z,99849.00
2019-03-27T12:10:32.014Z,99853.78
2019-03-27T12:13:01.402Z,99857.88
2019-03-27T12:15:43.955Z,99855.27
2019-03-27T12:18:14.948Z,99851.70
2019-03-27T12:20:57.716Z,99845.09
2019-03-27T12:23:14.572Z,99840.72
2019-03-27T12:25:43.517Z,99844.84
2019-03-27T12:28:12.312Z,99843.09
2019-03-27T12:30:41.739Z,99838.06
2019-03-27T12:33:10.731Z,99839.96
2019-03-27T12:35:40.359Z,99842.55
2019-03-27T12:38:10.523Z,99843.09
2019-03-27T12:40:39.317Z,99843.37
2019-03-27T12:43:08.155Z,99839.83
2019-03-27T12:45:37.351Z,99837.71
2019-03-27T12:48:06.798Z,99838.16
2019-03-27T12:50:35.730Z,99839.92
2019-03-27T12:53:05.135Z,99838.59
2019-03-27T12:55:34.383Z,99836.99
2019-03-27T12:58:03.273Z,99839.80
2019-03-27T13:00:32.305Z,99839.02
2019-03-27T13:03:01.246Z,99838.10
2019-03-27T13:05:30.718Z,99842.59
2019-03-27T13:07:59.871Z,99831.95
2019-03-27T13:10:28.821Z,99836.62
2019-03-27T13:12:57.934Z,99842.70
2019-03-27T13:15:26.994Z,99836.78
2019-03-27T13:17:56.412Z,99831.82
2019-03-27T13:20:25.713Z,99838.20
2019-03-27T13:22:54.622Z,99828.58
2019-03-27T13:25:23.540Z,99829.44
2019-03-27T13:27:52.507Z,99824.34
2019-03-27T13:30:21.391Z,99826.47
2019-03-27T13:32:51.194Z,99830.36
2019-03-27T13:35:20.085Z,99819.82
2019-03-27T13:37:49.481Z,99825.00
2019-03-27T13:40:19.160Z,99833.73
2019-03-27T13:42:48.022Z,99829.13
2019-03-27T13:45:18.203Z,99822.44
2019-03-27T13:47:47.206Z,99826.09
2019-03-27T13:50:16.181Z,99826.26
2019-03-27T13:52:45.033Z,99821.35
2019-03-27T13:55:14.155Z,99811.91
2019-03-27T13:57:43.240Z,99810.45
2019-03-27T14:00:13.717Z,99814.61
2019-03-27T14:02:42.565Z,99808.53
2019-03-27T14:05:13.887Z,99808.28
2019-03-27T14:07:43.157Z,99801.59
2019-03-27T14:10:12.137Z,99790.55
2019-03-27T14:12:41.997Z,99791.99
2019-03-27T14:15:10.839Z,99787.14
2019-03-27T14:17:40.035Z,99785.91
2019-03-27T14:20:08.945Z,99786.55
2019-03-27T14:22:38.214Z,99792.11
2019-03-27T14:25:07.744Z,99793.03
2019-03-27T14:27:37.374Z,99780.84
2019-03-27T14:30:07.923Z,99793.22
2019-03-27T14:32:37.931Z,99785.18
2019-03-27T14:35:06.977Z,99788.86
2019-03-27T14:37:36.164Z,99788.68
2019-03-27T14:40:08.153Z,99786.89
2019-03-27T14:42:37.311Z,99782.45
2019-03-27T14:45:08.652Z,99786.02
2019-03-27T14:47:38.217Z,99770.99
2019-03-27T14:50:08.956Z,99773.00
2019-03-27T14:52:38.249Z,99777.11
2019-03-27T14:55:08.544Z,99783.20
2019-03-27T14:57:38.553Z,99789.13
2019-03-27T15:00:10.415Z,99791.72
2019-03-27T15:02:39.536Z,99792.16
2019-03-27T15:05:09.215Z,99784.12
2019-03-27T15:07:38.488Z,99785.03
2019-03-27T15:10:09.219Z,99786.37
2019-03-27T15:12:38.487Z,99784.38
2019-03-27T15:15:07.699Z,99788.92
2019-03-27T15:17:36.559Z,99792.38
2019-03-27T15:20:09.166Z,99799.90
2019-03-27T15:22:40.615Z,99799.62
2019-03-27T15:25:09.831Z,99799.38
2019-03-27T15:27:44.722Z,99801.59
2019-03-27T15:30:14.151Z,99805.20
2019-03-27T15:32:47.324Z,99801.05
2019-03-27T15:35:16.749Z,99799.30
2019-03-27T15:37:46.000Z,99803.16
2019-03-27T15:40:17.135Z,99803.16
2019-03-27T15:42:46.179Z,99801.41
2019-03-27T15:45:17.348Z,99797.61
2019-03-27T15:47:46.350Z,99806.55
2019-03-27T15:50:15.274Z,99801.65
2019-03-27T15:52:45.253Z,99795.09
2019-03-27T15:55:14.450Z,99800.20
2019-03-27T15:57:44.316Z,99792.18
2019-03-27T16:00:14.686Z,99796.88
2019-03-27T16:02:43.985Z,99794.66
2019-03-27T16:05:12.919Z,99793.23
2019-03-27T16:07:41.888Z,99792.44
2019-03-27T16:10:13.325Z,99798.55
2019-03-27T16:12:42.230Z,99801.84
2019-03-27T16:15:12.380Z,99797.56
2019-03-27T16:17:42.433Z,99793.13
2019-03-27T16:20:11.697Z,99794.93
2019-03-27T16:22:50.662Z,99800.07
2019-03-27T16:25:11.489Z,99800.67
2019-03-27T16:27:40.787Z,99802.58
2019-03-27T16:30:11.261Z,99798.14
2019-03-27T16:32:40.202Z,99802.52
2019-03-27T16:35:10.449Z,99803.95
2019-03-27T16:37:39.301Z,99803.77
2019-03-27T16:40:09.753Z,99802.27
2019-03-27T16:42:41.448Z,99806.02
2019-03-27T16:45:15.503Z,99810.72
2019-03-27T16:47:45.192Z,99813.14
2019-03-27T16:50:16.416Z,99810.39
2019-03-27T16:52:45.358Z,99811.17
2019-03-27T16:55:14.328Z,99817.25
2019-03-27T16:57:47.454Z,99818.30
2019-03-27T17:00:16.810Z,99818.23
2019-03-27T17:02:45.966Z,99823.11
2019-03-27T17:05:15.992Z,99826.43
2019-03-27T17:07:44.969Z,99824.17
2019-03-27T17:10:13.901Z,99828.11
2019-03-27T17:12:42.606Z,99830.30
2019-03-27T17:15:11.513Z,99836.20
2019-03-27T17:17:40.421Z,99838.48
2019-03-27T17:20:09.352Z,99839.88
2019-03-27T17:22:38.154Z,99839.36
2019-03-27T17:25:07.449Z,99841.87
2019-03-27T17:27:36.708Z,99841.84
2019-03-27T17:30:06.022Z,99850.45
2019-03-27T17:32:35.077Z,99850.13
2019-03-27T17:35:04.359Z,99846.05
2019-03-27T17:37:33.550Z,99849.44
2019-03-27T17:40:02.532Z,99852.88
2019-03-27T17:42:31.488Z,99858.55
2019-03-27T17:45:01.001Z,99858.44
2019-03-27T17:47:29.842Z,99858.13
2019-03-27T17:49:59.008Z,99862.21
2019-03-27T17:52:29.583Z,99863.59
2019-03-27T17:54:59.481Z,99863.79
2019-03-27T17:57:28.327Z,99866.52
2019-03-27T17:59:57.347Z,99860.88
2019-03-27T18:02:27.133Z,99867.30
2019-03-27T18:04:56.396Z,99864.83
2019-03-27T18:07:25.343Z,99871.52
2019-03-27T18:09:54.772Z,99869.59
2019-03-27T18:12:24.835Z,99872.36
2019-03-27T18:14:54.635Z,99872.75
2019-03-27T18:17:23.473Z,99876.86
2019-03-27T18:19:52.518Z,99872.19
2019-03-27T18:22:21.392Z,99874.45
2019-03-27T18:24:50.339Z,99881.92
2019-03-27T18:27:19.468Z,99887.30
2019-03-27T18:29:48.627Z,99893.20
2019-03-27T18:32:17.866Z,99887.77
2019-03-27T18:34:46.354Z,99892.87
2019-03-27T18:37:15.711Z,99896.86
2019-03-27T18:39:44.128Z,99900.02
2019-03-27T18:42:13.194Z,99899.89
2019-03-27T18:44:42.140Z,99901.51
2019-03-27T18:47:11.349Z,99904.78
2019-03-27T18:49:40.332Z,99909.08
2019-03-27T18:52:09.697Z,99911.66
2019-03-27T18:54:38.611Z,99917.78
2019-03-27T18:57:09.407Z,99920.28
2019-03-27T18:59:39.496Z,99925.24
2019-03-27T19:02:09.043Z,99926.63
2019-03-27T19:04:39.273Z,99927.16
2019-03-27T19:07:10.591Z,99929.59
2019-03-27T19:09:39.902Z,99927.89
2019-03-27T19:12:09.552Z,99925.48
2019-03-27T19:14:38.808Z,99929.27
2019-03-27T19:17:07.917Z,99934.48
2019-03-27T19:19:37.843Z,99940.86
2019-03-27T19:22:07.066Z,99938.91
2019-03-27T19:24:40.604Z,99945.08
2019-03-27T19:27:12.185Z,99949.05
2019-03-27T19:29:44.854Z,99944.80
2019-03-27T19:32:13.239Z,99948.20
2019-03-27T19:34:42.986Z,99945.20
2019-03-27T19:37:12.379Z,99948.91
2019-03-27T19:39:41.730Z,99952.89
2019-03-27T19:42:13.561Z,99954.08
2019-03-27T19:44:42.851Z,99957.39
2019-03-27T19:47:15.232Z,99954.17
2019-03-27T19:49:45.923Z,99950.56
2019-03-27T19:52:15.727Z,99953.79
2019-03-27T19:54:47.837Z,99958.72
2019-03-27T19:57:17.749Z,99954.71
2019-03-27T19:59:46.945Z,99954.06
2019-03-27T20:02:16.188Z,99962.48
2019-03-27T20:04:45.964Z,99957.75
2019-03-27T20:07:15.404Z,99956.07
2019-03-27T20:09:44.497Z,99960.25
2019-03-27T20:12:13.807Z,99961.33
2019-03-27T20:14:42.828Z,99963.28
2019-03-27T20:17:11.958Z,99968.30
2019-03-27T20:19:42.998Z,99970.03
2019-03-27T20:22:12.277Z,99976.86
2019-03-27T20:24:42.268Z,99976.62
2019-03-27T20:27:11.914Z,99975.58
2019-03-27T20:29:41.128Z,99975.17
2019-03-27T20:32:11.908Z,99971.48
2019-03-27T20:34:41.590Z,99975.97
2019-03-27T20:37:12.799Z,99969.71
2019-03-27T20:39:42.820Z,99965.58
2019-03-27T20:42:12.129Z,99969.52
2019-03-27T20:44:41.661Z,99963.17
2019-03-27T20:47:14.723Z,99976.33
2019-03-27T20:49:49.610Z,99971.88
2019-03-27T20:52:18.832Z,99970.47
2019-03-27T20:54:54.915Z,99968.63
2019-03-27T20:57:19.551Z,99969.66
2019-03-27T20:59:48.838Z,99973.94
2019-03-27T21:02:20.502Z,99980.86
2019-03-27T21:04:49.575Z,99971.19
2019-03-27T21:07:18.431Z,99971.20
2019-03-27T21:09:48.065Z,99974.77
2019-03-27T21:12:17.595Z,99975.16
2019-03-27T21:14:46.488Z,99978.61
2019-03-27T21:17:15.536Z,99981.57
2019-03-27T21:19:44.375Z,99983.47
2019-03-27T21:22:13.568Z,99982.27
2019-03-27T21:24:42.429Z,99975.44
2019-03-27T21:27:11.261Z,99976.25
2019-03-27T21:29:40.538Z,99984.64
2019-03-27T21:32:09.382Z,99988.31
2019-03-27T21:34:38.182Z,99986.86
2019-03-27T21:37:06.980Z,99987.27
2019-03-27T21:39:36.538Z,99991.20
2019-03-27T21:42:06.536Z,99987.84
2019-03-27T21:44:35.427Z,99989.40
2019-03-27T21:47:04.385Z,99989.03
2019-03-27T21:49:35.234Z,99983.50
2019-03-27T21:52:04.076Z,99985.66
2019-03-27T21:54:32.737Z,99984.91
2019-03-27T21:57:01.646Z,99987.34
2019-03-27T21:59:30.291Z,99991.95
2019-03-27T22:01:59.521Z,99986.15
2019-03-27T22:04:28.552Z,99991.88
2019-03-27T22:06:57.885Z,99993.05
2019-03-27T22:09:27.100Z,99989.82
2019-03-27T22:11:56.011Z,99998.72
2019-03-27T22:14:24.880Z,99990.35
2019-03-27T22:16:53.706Z,99994.71
2019-03-27T22:19:22.993Z,99986.98
2019-03-27T22:21:52.011Z,99994.34
2019-03-27T22:24:20.787Z,99995.59
2019-03-27T22:26:49.655Z,99994.54
2019-03-27T22:29:18.547Z,99996.42
2019-03-27T22:31:47.670Z,100002.09
2019-03-27T22:34:16.489Z,100000.92
2019-03-27T22:36:45.394Z,99999.06
2019-03-27T22:39:14.318Z,100005.71
2019-03-27T22:41:43.338Z,100001.00
2019-03-27T22:44:12.143Z,100005.00
2019-03-27T22:46:40.958Z,100000.92
2019-03-27T22:49:09.799Z,99995.41
2019-03-27T22:51:38.721Z,99998.99
2019-03-27T22:54:08.712Z,100004.25
2019-03-27T22:56:37.552Z,100007.23
2019-03-27T22:59:06.395Z,100006.94
2019-03-27T23:01:42.586Z,100006.50
2019-03-27T23:16:31.736Z,100009.80
2019-03-27T23:19:00.669Z,100012.45
2019-03-27T23:21:29.623Z,100015.57
2019-03-27T23:23:58.409Z,100017.80
2019-03-27T23:26:27.558Z,100014.91
2019-03-27T23:28:56.361Z,100015.16
2019-03-27T23:31:25.246Z,100013.88
2019-03-27T23:33:54.183Z,100013.37
2019-03-27T23:36:23.256Z,100012.53
2019-03-27T23:38:52.129Z,100006.95
2019-03-27T23:41:21.142Z,100014.32
2019-03-27T23:43:52.765Z,100012.61
2019-03-27T23:46:24.475Z,100018.16
2019-03-27T23:48:53.285Z,100017.02
2019-03-27T23:51:22.195Z,100017.05
2019-03-27T23:53:51.054Z,100015.05
2019-03-27T23:56:20.014Z,100018.54
2019-03-27T23:58:48.850Z,100013.59
